createdAt,value
2023-02-01T00:01:15.136Z,25.40
2023-02-01T00:03:42.748Z,25.40
2023-02-01T00:06:10.665Z,25.40
2023-02-01T00:08:38.249Z,25.40
2023-02-01T00:11:08.647Z,25.30
2023-02-01T00:13:38.921Z,25.30
2023-02-01T00:16:08.410Z,25.30
2023-02-01T00:18:36.544Z,25.30
2023-02-01T00:21:04.462Z,25.30
2023-02-01T00:23:34.989Z,25.30
2023-02-01T00:26:03.500Z,25.30
2023-02-01T00:28:32.953Z,25.20
2023-02-01T00:31:01.129Z,25.20
2023-02-01T00:33:29.139Z,25.20
2023-02-01T00:35:58.978Z,25.20
2023-02-01T00:38:26.898Z,25.20
2023-02-01T00:40:54.552Z,25.20
2023-02-01T00:43:22.602Z,25.10
2023-02-01T00:45:51.545Z,25.10
2023-02-01T00:48:20.932Z,25.10
2023-02-01T00:50:48.573Z,25.10
2023-02-01T00:53:16.224Z,25.10
2023-02-01T00:55:47.140Z,25.10
2023-02-01T00:58:14.759Z,25.10
2023-02-01T01:00:42.704Z,25.00
2023-02-01T01:03:19.390Z,25.00
2023-02-01T01:05:47.107Z,25.00
2023-02-01T01:08:15.257Z,25.00
2023-02-01T01:10:43.339Z,25.00
2023-02-01T01:13:11.105Z,25.00
2023-02-01T01:15:39.259Z,25.00
2023-02-01T01:18:07.044Z,25.00
2023-02-01T01:20:39.540Z,25.00
2023-02-01T01:23:08.064Z,25.00
2023-02-01T01:25:39.200Z,24.90
2023-02-01T01:28:07.363Z,24.90
2023-02-01T01:30:35.866Z,24.90
2023-02-01T01:33:03.663Z,24.90
2023-02-01T01:35:32.101Z,24.90
2023-02-01T01:38:02.093Z,24.90
2023-02-01T01:40:30.223Z,24.90
2023-02-01T01:42:58.524Z,24.90
2023-02-01T01:45:28.174Z,24.80
2023-02-01T01:47:58.229Z,24.90
2023-02-01T01:50:30.928Z,24.80
2023-02-01T01:53:04.198Z,24.80
2023-02-01T01:55:35.789Z,24.80
2023-02-01T01:58:06.830Z,24.80
2023-02-01T02:00:35.754Z,24.80
2023-02-01T02:03:09.183Z,24.80
2023-02-01T02:05:36.993Z,24.80
2023-02-01T02:08:06.218Z,24.70
2023-02-01T02:10:52.112Z,24.70
2023-02-01T02:13:20.404Z,24.70
2023-02-01T02:15:58.919Z,24.70
2023-02-01T02:18:33.415Z,24.70
2023-02-01T02:21:13.603Z,24.70
2023-02-01T02:24:18.910Z,24.70
2023-02-01T02:27:23.860Z,24.60
2023-02-01T02:30:29.980Z,24.60
2023-02-01T02:33:21.111Z,24.60
2023-02-01T02:35:54.836Z,24.60
2023-02-01T02:38:31.713Z,24.60
2023-02-01T02:41:08.201Z,24.60
2023-02-01T02:43:59.286Z,24.60
2023-02-01T02:46:48.713Z,24.60
2023-02-01T02:49:23.746Z,24.50
2023-02-01T02:52:12.179Z,24.50
2023-02-01T02:54:52.693Z,24.50
2023-02-01T02:57:41.109Z,24.50
2023-02-01T03:00:30.238Z,24.50
2023-02-01T03:03:16.057Z,24.50
2023-02-01T03:05:47.565Z,24.50
2023-02-01T03:08:17.077Z,24.40
2023-02-01T03:10:55.371Z,24.50
2023-02-01T03:13:29.341Z,24.40
2023-02-01T03:16:03.519Z,24.40
2023-02-01T03:18:37.802Z,24.40
2023-02-01T03:21:12.392Z,24.40
2023-02-01T03:23:40.442Z,24.40
2023-02-01T03:26:11.187Z,24.40
2023-02-01T03:28:40.760Z,24.40
2023-02-01T03:31:09.199Z,24.40
2023-02-01T03:33:36.902Z,24.40
2023-02-01T03:36:17.060Z,24.40
2023-02-01T03:38:53.967Z,24.40
2023-02-01T03:41:29.157Z,24.40
2023-02-01T03:44:00.937Z,24.40
2023-02-01T03:46:35.038Z,24.40
2023-02-01T03:49:07.015Z,24.40
2023-02-01T03:51:39.044Z,24.30
2023-02-01T03:54:08.781Z,24.30
2023-02-01T03:56:39.817Z,24.30
2023-02-01T03:59:07.491Z,24.30
2023-02-01T04:01:35.265Z,24.30
2023-02-01T04:04:03.265Z,24.30
2023-02-01T04:06:30.899Z,24.30
2023-02-01T04:08:59.853Z,24.30
2023-02-01T04:11:28.413Z,24.30
2023-02-01T04:13:56.003Z,24.30
2023-02-01T04:16:23.683Z,24.30
2023-02-01T04:21:18.806Z,24.30
2023-02-01T04:23:46.397Z,24.30
2023-02-01T04:26:17.264Z,24.30
2023-02-01T04:28:44.996Z,24.30
2023-02-01T04:31:12.671Z,24.30
2023-02-01T04:33:40.372Z,24.30
2023-02-01T04:36:08.358Z,24.30
2023-02-01T04:38:36.106Z,24.30
2023-02-01T04:41:03.700Z,24.30
2023-02-01T04:43:32.889Z,24.30
2023-02-01T04:46:00.538Z,24.30
2023-02-01T04:48:28.666Z,24.30
2023-02-01T04:50:56.366Z,24.30
2023-02-01T04:53:23.992Z,24.30
2023-02-01T04:55:51.847Z,24.30
2023-02-01T04:58:19.484Z,24.30
2023-02-01T05:00:48.534Z,24.30
2023-02-01T05:03:16.288Z,24.30
2023-02-01T05:05:43.898Z,24.30
2023-02-01T05:08:11.563Z,24.30
2023-02-01T05:10:39.175Z,24.30
2023-02-01T05:13:24.434Z,24.30
2023-02-01T05:15:53.897Z,24.30
2023-02-01T05:18:21.547Z,24.30
2023-02-01T05:20:49.165Z,24.30
2023-02-01T05:23:16.781Z,24.30
2023-02-01T05:25:44.415Z,24.30
2023-02-01T05:28:12.039Z,24.30
2023-02-01T05:30:42.166Z,24.30
2023-02-01T05:33:11.313Z,24.30
2023-02-01T05:35:38.932Z,24.30
2023-02-01T05:38:06.552Z,24.30
2023-02-01T05:40:34.205Z,24.30
2023-02-01T05:43:01.823Z,24.30
2023-02-01T05:45:29.419Z,24.40
2023-02-01T05:47:57.016Z,24.40
2023-02-01T05:50:26.001Z,24.40
2023-02-01T05:52:53.618Z,24.40
2023-02-01T05:55:21.224Z,24.40
2023-02-01T05:57:48.845Z,24.40
2023-02-01T06:00:16.881Z,24.40
2023-02-01T06:02:44.827Z,24.40
2023-02-01T06:05:12.566Z,24.40
2023-02-01T06:07:41.831Z,24.40
2023-02-01T06:10:10.894Z,24.40
2023-02-01T06:12:39.201Z,24.50
2023-02-01T06:15:08.118Z,24.50
2023-02-01T06:17:36.048Z,24.50
2023-02-01T06:20:04.246Z,24.50
2023-02-01T06:22:31.852Z,24.50
2023-02-01T06:25:00.825Z,24.50
2023-02-01T06:27:28.424Z,24.50
2023-02-01T06:29:56.088Z,24.50
2023-02-01T06:32:23.912Z,24.50
2023-02-01T06:34:53.381Z,24.50
2023-02-01T06:37:21.601Z,24.60
2023-02-01T06:39:49.255Z,24.60
2023-02-01T06:42:18.561Z,24.60
2023-02-01T06:44:46.152Z,24.60
2023-02-01T06:47:13.789Z,24.60
2023-02-01T06:49:41.427Z,24.60
2023-02-01T06:52:09.198Z,24.60
2023-02-01T06:54:38.328Z,24.60
2023-02-01T06:57:06.552Z,24.60
2023-02-01T06:59:35.503Z,24.60
2023-02-01T07:02:03.155Z,24.70
2023-02-01T07:04:31.249Z,24.70
2023-02-01T07:06:58.961Z,24.70
2023-02-01T07:09:26.596Z,24.70
2023-02-01T07:11:54.191Z,24.70
2023-02-01T07:14:21.845Z,24.70
2023-02-01T07:16:51.816Z,24.70
2023-02-01T07:19:19.440Z,24.70
2023-02-01T07:21:47.045Z,24.70
2023-02-01T07:24:15.562Z,24.70
2023-02-01T07:26:43.234Z,24.70
2023-02-01T07:29:11.117Z,24.70
2023-02-01T07:31:38.738Z,24.70
2023-02-01T07:34:07.851Z,24.80
2023-02-01T07:36:37.226Z,24.80
2023-02-01T07:39:04.973Z,24.80
2023-02-01T07:41:32.616Z,24.80
2023-02-01T07:44:00.253Z,24.80
2023-02-01T07:46:27.978Z,24.80
2023-02-01T07:48:55.576Z,24.80
2023-02-01T07:51:24.620Z,24.80
2023-02-01T07:53:52.616Z,24.80
2023-02-01T07:56:23.421Z,24.80
2023-02-01T07:58:51.959Z,24.80
2023-02-01T08:01:20.826Z,24.80
2023-02-01T08:03:48.924Z,24.80
2023-02-01T08:06:16.601Z,24.70
2023-02-01T08:08:47.676Z,24.70
2023-02-01T08:11:16.459Z,24.70
2023-02-01T08:13:44.458Z,24.70
2023-02-01T08:16:14.498Z,24.60
2023-02-01T08:18:42.719Z,24.60
2023-02-01T08:21:12.652Z,24.60
2023-02-01T08:23:42.127Z,24.60
2023-02-01T08:26:25.867Z,24.60
2023-02-01T08:28:55.896Z,24.60
2023-02-01T08:31:25.260Z,24.60
2023-02-01T08:33:54.486Z,24.50
2023-02-01T08:36:23.082Z,24.60
2023-02-01T08:38:50.988Z,24.60
2023-02-01T08:41:22.152Z,24.60
2023-02-01T08:43:50.115Z,24.60
2023-02-01T08:46:18.035Z,24.60
2023-02-01T08:48:47.620Z,24.60
2023-02-01T08:51:17.358Z,24.60
2023-02-01T08:53:45.283Z,24.60
2023-02-01T08:56:14.358Z,24.60
2023-02-01T08:58:43.677Z,24.60
2023-02-01T09:01:13.511Z,24.60
2023-02-01T09:03:41.909Z,24.60
2023-02-01T09:06:11.450Z,24.70
2023-02-01T09:08:40.345Z,24.60
2023-02-01T09:11:12.110Z,24.60
2023-02-01T09:13:39.733Z,24.60
2023-02-01T09:16:09.189Z,24.60
2023-02-01T09:18:41.851Z,24.60
2023-02-01T09:21:18.474Z,24.70
2023-02-01T09:23:46.159Z,24.60
2023-02-01T09:26:17.127Z,24.60
2023-02-01T09:28:47.121Z,24.60
2023-02-01T09:31:17.033Z,24.60
2023-02-01T09:33:44.739Z,24.60
2023-02-01T09:36:12.814Z,24.60
2023-02-01T09:38:44.620Z,24.70
2023-02-01T09:41:31.544Z,24.60
2023-02-01T09:44:09.387Z,24.60
2023-02-01T09:46:38.961Z,24.70
2023-02-01T09:49:12.519Z,24.60
2023-02-01T09:51:44.823Z,24.60
2023-02-01T09:54:16.473Z,24.60
2023-02-01T09:56:48.831Z,24.70
2023-02-01T09:59:27.118Z,24.70
2023-02-01T10:01:56.257Z,24.70
2023-02-01T10:04:23.941Z,24.70
2023-02-01T10:07:04.672Z,24.80
2023-02-01T10:09:44.274Z,24.80
2023-02-01T10:12:33.496Z,24.80
2023-02-01T10:15:11.486Z,24.90
2023-02-01T10:17:53.071Z,25.00
2023-02-01T10:20:29.395Z,25.00
2023-02-01T10:23:23.188Z,25.00
2023-02-01T10:25:56.102Z,25.10
2023-02-01T10:28:26.031Z,25.10
2023-02-01T10:30:58.820Z,25.10
2023-02-01T10:33:32.213Z,25.20
2023-02-01T10:36:05.380Z,25.20
2023-02-01T10:38:35.077Z,25.20
2023-02-01T10:41:05.977Z,25.20
2023-02-01T10:43:34.916Z,25.20
2023-02-01T10:46:02.669Z,25.20
2023-02-01T10:48:32.872Z,25.20
2023-02-01T10:51:02.953Z,25.20
2023-02-01T10:53:36.655Z,25.20
2023-02-01T10:56:08.635Z,25.30
2023-02-01T10:58:44.083Z,25.30
2023-02-01T11:01:17.896Z,25.30
2023-02-01T11:03:55.482Z,25.30
2023-02-01T11:06:30.068Z,25.40
2023-02-01T11:08:59.749Z,25.40
2023-02-01T11:11:27.712Z,25.40
2023-02-01T11:13:58.346Z,25.50
2023-02-01T11:16:36.209Z,25.50
2023-02-01T11:19:06.994Z,25.50
2023-02-01T11:21:35.151Z,25.60
2023-02-01T11:24:04.536Z,25.60
2023-02-01T11:26:33.895Z,25.60
2023-02-01T11:29:05.131Z,25.70
2023-02-01T11:31:35.591Z,25.70
2023-02-01T11:34:08.814Z,25.70
2023-02-01T11:36:38.629Z,25.70
2023-02-01T11:39:13.385Z,25.70
2023-02-01T11:41:45.966Z,25.70
2023-02-01T11:44:24.641Z,25.70
2023-02-01T11:46:54.515Z,25.70
2023-02-01T11:49:26.908Z,25.70
2023-02-01T11:52:06.772Z,25.70
2023-02-01T11:54:48.338Z,25.70
2023-02-01T11:57:30.003Z,25.70
2023-02-01T12:00:09.737Z,25.70
2023-02-01T12:03:09.922Z,25.70
2023-02-01T12:05:53.103Z,25.70
2023-02-01T12:08:50.535Z,25.70
2023-02-01T12:11:35.654Z,25.70
2023-02-01T12:14:23.278Z,25.70
2023-02-01T12:17:03.698Z,25.70
2023-02-01T12:19:46.411Z,25.70
2023-02-01T12:22:29.364Z,25.80
2023-02-01T12:25:21.359Z,25.80
2023-02-01T12:28:13.047Z,25.80
2023-02-01T12:30:57.004Z,25.70
2023-02-01T12:33:35.184Z,25.80
2023-02-01T12:36:14.869Z,25.70
2023-02-01T12:38:53.087Z,25.80
2023-02-01T12:41:46.579Z,25.80
2023-02-01T12:44:25.956Z,25.80
2023-02-01T12:46:57.116Z,25.80
2023-02-01T12:49:31.193Z,25.80
2023-02-01T12:52:03.774Z,25.70
2023-02-01T12:54:40.053Z,25.80
2023-02-01T12:57:14.334Z,25.80
2023-02-01T12:59:46.456Z,25.80
2023-02-01T13:02:20.892Z,25.80
2023-02-01T13:05:02.662Z,25.80
2023-02-01T13:07:35.730Z,25.80
2023-02-01T13:10:14.787Z,25.80
2023-02-01T13:12:49.615Z,25.80
2023-02-01T13:15:22.071Z,25.80
2023-02-01T13:17:51.925Z,25.80
2023-02-01T13:20:24.982Z,25.80
2023-02-01T13:22:57.498Z,25.70
2023-02-01T13:25:34.562Z,25.80
2023-02-01T13:28:06.602Z,25.80
2023-02-01T13:30:47.241Z,25.80
2023-02-01T13:33:53.559Z,25.80
2023-02-01T13:36:41.183Z,25.80
2023-02-01T13:39:50.339Z,25.80
2023-02-01T13:42:24.808Z,25.80
2023-02-01T13:44:57.583Z,25.80
2023-02-01T13:47:30.162Z,25.80
2023-02-01T13:50:00.447Z,25.80
2023-02-01T13:52:38.280Z,25.80
2023-02-01T13:55:26.097Z,25.80
2023-02-01T13:58:04.106Z,25.80
2023-02-01T14:00:34.142Z,25.80
2023-02-01T14:03:20.991Z,25.80
2023-02-01T14:06:18.606Z,25.80
2023-02-01T14:09:17.623Z,25.80
2023-02-01T14:11:47.866Z,25.80
2023-02-01T14:14:41.489Z,25.80
2023-02-01T14:17:37.114Z,25.80
2023-02-01T14:20:40.715Z,25.90
2023-02-01T14:23:15.443Z,25.80
2023-02-01T14:25:43.663Z,25.80
2023-02-01T14:28:26.376Z,25.80
2023-02-01T14:30:56.428Z,25.90
2023-02-01T14:33:25.897Z,25.90
2023-02-01T14:36:07.509Z,25.90
2023-02-01T14:38:37.907Z,25.90
2023-02-01T14:41:32.267Z,25.90
2023-02-01T14:44:25.826Z,25.90
2023-02-01T14:47:33.060Z,25.80
2023-02-01T14:50:26.929Z,25.80
2023-02-01T14:53:12.930Z,25.80
2023-02-01T14:55:43.253Z,25.80
2023-02-01T14:58:19.908Z,25.80
2023-02-01T15:00:54.688Z,25.80
2023-02-01T15:03:47.751Z,25.80
2023-02-01T15:06:26.137Z,25.80
2023-02-01T15:08:56.968Z,25.80
2023-02-01T15:11:24.628Z,25.80
2023-02-01T15:13:55.443Z,25.80
2023-02-01T15:16:24.834Z,25.80
2023-02-01T15:19:10.755Z,25.80
2023-02-01T15:21:47.802Z,25.80
2023-02-01T15:24:20.462Z,25.80
2023-02-01T15:26:48.577Z,25.80
2023-02-01T15:29:17.011Z,25.80
2023-02-01T15:31:47.736Z,25.80
2023-02-01T15:34:17.609Z,25.80
2023-02-01T15:37:01.435Z,25.80
2023-02-01T15:39:31.803Z,25.80
2023-02-01T15:42:02.915Z,25.80
2023-02-01T15:44:35.200Z,25.80
2023-02-01T15:47:09.928Z,25.80
2023-02-01T15:49:42.118Z,25.80
2023-02-01T15:52:25.956Z,25.80
2023-02-01T15:54:56.031Z,25.80
2023-02-01T15:57:31.463Z,25.80
2023-02-01T16:00:00.798Z,25.80
2023-02-01T16:02:33.173Z,25.80
2023-02-01T16:05:03.312Z,25.80
2023-02-01T16:07:32.265Z,25.80
2023-02-01T16:10:07.211Z,25.80
2023-02-01T16:12:37.116Z,25.80
2023-02-01T16:15:05.198Z,25.80
2023-02-01T16:17:33.055Z,25.80
2023-02-01T16:20:02.212Z,25.80
2023-02-01T16:22:29.832Z,25.80
2023-02-01T16:24:58.012Z,25.80
2023-02-01T16:27:25.782Z,25.80
2023-02-01T16:29:56.792Z,25.80
2023-02-01T16:32:27.896Z,25.80
2023-02-01T16:34:55.753Z,25.80
2023-02-01T16:37:26.365Z,25.80
2023-02-01T16:39:54.037Z,25.80
2023-02-01T16:42:21.676Z,25.80
2023-02-01T16:44:49.308Z,25.80
2023-02-01T16:47:21.088Z,25.80
2023-02-01T16:49:50.321Z,25.80
2023-02-01T16:52:20.278Z,25.80
2023-02-01T16:54:50.049Z,25.80
2023-02-01T16:57:23.345Z,25.80
2023-02-01T16:59:52.133Z,25.80
2023-02-01T17:02:22.794Z,25.80
2023-02-01T17:04:50.734Z,25.80
2023-02-01T17:07:20.093Z,25.70
2023-02-01T17:09:49.192Z,25.70
2023-02-01T17:12:23.848Z,25.70
2023-02-01T17:14:52.291Z,25.70
2023-02-01T17:17:32.642Z,25.70
2023-02-01T17:20:06.852Z,25.70
2023-02-01T17:22:34.963Z,25.70
2023-02-01T17:25:06.932Z,25.70
2023-02-01T17:27:35.388Z,25.70
2023-02-01T17:30:04.246Z,25.70
2023-02-01T17:32:32.370Z,25.70
2023-02-01T17:35:00.112Z,25.70
2023-02-01T17:37:29.649Z,25.70
2023-02-01T17:39:57.494Z,25.70
2023-02-01T17:42:28.128Z,25.70
2023-02-01T17:44:59.196Z,25.70
2023-02-01T17:47:26.837Z,25.70
2023-02-01T17:49:57.050Z,25.70
2023-02-01T17:52:26.052Z,25.70
2023-02-01T17:54:54.576Z,25.70
2023-02-01T17:57:22.675Z,25.70
2023-02-01T17:59:51.744Z,25.70
2023-02-01T18:02:21.626Z,25.70
2023-02-01T18:04:49.987Z,25.70
2023-02-01T18:07:17.728Z,25.70
2023-02-01T18:09:45.345Z,25.70
2023-02-01T18:12:19.884Z,25.70
2023-02-01T18:14:47.511Z,25.70
2023-02-01T18:17:16.582Z,25.70
2023-02-01T18:19:44.190Z,25.70
2023-02-01T18:22:17.788Z,25.70
2023-02-01T18:24:45.418Z,25.70
2023-02-01T18:27:13.058Z,25.70
2023-02-01T18:29:40.725Z,25.70
2023-02-01T18:32:11.137Z,25.70
2023-02-01T18:34:40.965Z,25.70
2023-02-01T18:37:08.607Z,25.70
2023-02-01T18:39:37.545Z,25.70
2023-02-01T18:42:05.310Z,25.70
2023-02-01T18:44:32.923Z,25.70
2023-02-01T18:47:00.709Z,25.70
2023-02-01T18:49:28.319Z,25.70
2023-02-01T18:51:57.292Z,25.70
2023-02-01T18:54:26.256Z,25.70
2023-02-01T18:56:54.019Z,25.70
2023-02-01T18:59:21.902Z,25.70
2023-02-01T19:01:49.593Z,25.70
2023-02-01T19:04:24.411Z,25.70
2023-02-01T19:06:54.887Z,25.70
2023-02-01T19:09:23.906Z,25.70
2023-02-01T19:11:51.562Z,25.70
2023-02-01T19:14:19.156Z,25.70
2023-02-01T19:16:46.778Z,25.70
2023-02-01T19:19:14.420Z,25.80
2023-02-01T19:21:42.024Z,25.80
2023-02-01T19:24:09.896Z,25.70
2023-02-01T19:26:38.886Z,25.80
2023-02-01T19:29:06.522Z,25.80
2023-02-01T19:31:34.507Z,25.80
2023-02-01T19:34:02.395Z,25.80
2023-02-01T19:36:29.996Z,25.80
2023-02-01T19:38:57.700Z,25.80
2023-02-01T19:41:25.327Z,25.80
2023-02-01T19:43:54.263Z,25.80
2023-02-01T19:46:22.083Z,25.80
2023-02-01T19:48:49.779Z,25.80
2023-02-01T19:51:17.626Z,25.80
2023-02-01T19:53:45.742Z,25.80
2023-02-01T19:56:13.488Z,25.80
2023-02-01T19:58:41.129Z,25.80
2023-02-01T20:01:09.814Z,25.80
2023-02-01T20:03:37.448Z,25.80
2023-02-01T20:06:07.319Z,25.80
2023-02-01T20:08:35.037Z,25.80
2023-02-01T20:11:06.145Z,25.80
2023-02-01T20:13:35.168Z,25.70
2023-02-01T20:16:02.974Z,25.70
2023-02-01T20:18:32.038Z,25.70
2023-02-01T20:21:00.277Z,25.70
2023-02-01T20:23:28.469Z,25.70
2023-02-01T20:26:02.790Z,25.70
2023-02-01T20:28:30.896Z,25.70
2023-02-01T20:30:58.814Z,25.70
2023-02-01T20:33:27.624Z,25.70
2023-02-01T20:35:56.960Z,25.70
2023-02-01T20:38:25.433Z,25.70
2023-02-01T20:40:53.096Z,25.70
2023-02-01T20:43:20.804Z,25.70
2023-02-01T20:45:51.027Z,25.70
2023-02-01T20:48:18.645Z,25.70
2023-02-01T20:50:46.420Z,25.70
2023-02-01T20:53:26.053Z,25.70
2023-02-01T20:55:55.632Z,25.80
2023-02-01T20:58:23.675Z,25.80
2023-02-01T21:00:51.839Z,25.80
2023-02-01T21:03:19.676Z,25.80
2023-02-01T21:05:48.751Z,25.80
2023-02-01T21:08:18.612Z,25.80
2023-02-01T21:10:57.263Z,25.80
2023-02-01T21:13:25.381Z,25.80
2023-02-01T21:15:53.462Z,25.80
2023-02-01T21:18:21.588Z,25.80
2023-02-01T21:20:49.305Z,25.80
2023-02-01T21:23:18.879Z,25.80
2023-02-01T21:25:46.860Z,25.80
2023-02-01T21:28:15.148Z,25.80
2023-02-01T21:30:44.351Z,25.80
2023-02-01T21:33:12.012Z,25.90
2023-02-01T21:35:42.717Z,25.90
2023-02-01T21:38:10.916Z,25.90
2023-02-01T21:40:39.920Z,25.90
2023-02-01T21:43:07.620Z,25.90
2023-02-01T21:45:36.050Z,25.90
2023-02-01T21:48:04.857Z,25.90
2023-02-01T21:50:32.664Z,25.90
2023-02-01T21:53:00.288Z,25.90
2023-02-01T21:55:27.868Z,25.90
2023-02-01T21:57:56.829Z,25.90
2023-02-01T22:00:24.924Z,25.90
2023-02-01T22:02:52.557Z,25.90
2023-02-01T22:05:20.908Z,25.90
2023-02-01T22:07:48.503Z,25.90
2023-02-01T22:10:16.143Z,25.90
2023-02-01T22:12:43.778Z,26.00
2023-02-01T22:15:13.027Z,25.90
2023-02-01T22:17:41.057Z,25.90
2023-02-01T22:20:09.983Z,26.00
2023-02-01T22:22:37.627Z,26.00
2023-02-01T22:25:07.541Z,26.00
2023-02-01T22:28:30.657Z,26.00
2023-02-01T22:30:24.274Z,26.00
2023-02-01T22:32:51.898Z,26.00
2023-02-01T22:35:19.539Z,26.00
2023-02-01T22:37:47.115Z,26.00
2023-02-01T22:40:15.101Z,26.00
2023-02-01T22:42:42.680Z,26.00
2023-02-01T22:45:11.235Z,26.00
2023-02-01T22:47:40.207Z,26.00
2023-02-01T22:50:09.033Z,26.00
2023-02-01T22:52:36.619Z,26.00
2023-02-01T22:55:04.543Z,26.00
2023-02-01T22:57:32.311Z,25.90
2023-02-01T22:59:59.908Z,26.00
2023-02-01T23:02:27.500Z,25.90
2023-02-01T23:04:56.810Z,25.90
2023-02-01T23:07:24.489Z,25.90
2023-02-01T23:09:52.180Z,25.90
2023-02-01T23:12:19.774Z,25.90
2023-02-01T23:15:01.333Z,25.90
2023-02-01T23:17:28.934Z,25.90
2023-02-01T23:19:57.886Z,25.90
2023-02-01T23:22:25.874Z,25.90
2023-02-01T23:24:53.750Z,25.90
2023-02-01T23:27:21.355Z,25.90
2023-02-01T23:29:48.993Z,25.90
2023-02-01T23:32:17.179Z,25.80
2023-02-01T23:34:45.152Z,25.80
2023-02-01T23:37:14.439Z,25.80
2023-02-01T23:39:42.041Z,25.80
2023-02-01T23:42:09.621Z,25.80
2023-02-01T23:44:37.229Z,25.70
2023-02-01T23:47:04.932Z,25.70
2023-02-01T23:49:32.541Z,25.70
2023-02-01T23:52:00.129Z,25.70
2023-02-01T23:54:29.179Z,25.70
2023-02-01T23:56:57.325Z,25.70
2023-02-01T23:59:26.803Z,25.70
